createdAt,value
2023-04-02T00:01:48.605Z,98917.56
2023-04-02T00:05:30.632Z,98918.94
2023-04-02T00:08:44.032Z,98920.47
2023-04-02T00:11:54.971Z,98923.84
2023-04-02T00:14:58.204Z,98927.78
2023-04-02T00:18:02.692Z,98920.81
2023-04-02T00:21:12.564Z,98921.00
2023-04-02T00:24:17.715Z,98921.56
2023-04-02T00:27:19.599Z,98924.53
2023-04-02T00:30:22.752Z,98927.59
2023-04-02T00:33:28.958Z,98928.06
2023-04-02T00:36:34.337Z,98920.66
2023-04-02T00:39:41.595Z,98924.31
2023-04-02T00:42:44.925Z,98936.44
2023-04-02T00:45:51.226Z,98933.47
2023-04-02T00:48:59.632Z,98931.66
2023-04-02T00:52:04.701Z,98934.19
2023-04-02T00:55:12.669Z,98941.69
2023-04-02T00:58:23.218Z,98944.69
2023-04-02T01:01:27.616Z,98925.75
2023-04-02T01:04:34.669Z,98944.94
2023-04-02T01:07:51.603Z,98940.91
2023-04-02T01:11:03.943Z,98938.94
2023-04-02T01:14:15.144Z,98946.56
2023-04-02T01:17:28.443Z,98946.06
2023-04-02T01:21:06.611Z,98952.16
2023-04-02T01:24:12.380Z,98950.16
2023-04-02T01:27:16.590Z,98951.00
2023-04-02T01:30:21.316Z,98948.53
2023-04-02T01:33:25.057Z,98947.53
2023-04-02T01:36:36.965Z,98950.34
2023-04-02T01:39:52.335Z,98948.34
2023-04-02T01:43:04.322Z,98949.13
2023-04-02T01:46:25.917Z,98949.78
2023-04-02T01:49:28.616Z,98954.06
2023-04-02T01:52:38.424Z,98949.97
2023-04-02T01:55:43.332Z,98955.72
2023-04-02T01:58:46.496Z,98958.88
2023-04-02T02:01:57.258Z,98951.56
2023-04-02T02:04:59.241Z,98961.75
2023-04-02T02:08:02.921Z,98965.88
2023-04-02T02:11:06.119Z,98967.00
2023-04-02T02:14:15.038Z,98930.13
2023-04-02T02:17:24.277Z,98957.34
2023-04-02T02:20:28.261Z,98975.16
2023-04-02T02:23:31.081Z,98957.09
2023-04-02T02:26:36.063Z,98980.53
2023-04-02T02:29:41.114Z,98971.59
2023-04-02T02:32:54.542Z,98981.16
2023-04-02T02:36:00.799Z,98970.78
2023-04-02T02:39:11.038Z,98980.22
2023-04-02T02:42:19.870Z,98981.03
2023-04-02T02:45:25.641Z,98982.03
2023-04-02T02:48:34.330Z,98982.03
2023-04-02T02:51:44.068Z,98980.22
2023-04-02T02:54:49.837Z,98982.03
2023-04-02T02:57:55.722Z,98976.41
2023-04-02T03:00:58.436Z,98971.94
2023-04-02T03:04:03.310Z,98968.16
2023-04-02T03:07:09.072Z,98970.28
2023-04-02T03:10:14.930Z,98963.31
2023-04-02T03:13:24.422Z,98973.25
2023-04-02T03:16:31.387Z,98960.25
2023-04-02T03:19:42.261Z,98975.09
2023-04-02T03:22:50.780Z,98966.50
2023-04-02T03:26:00.014Z,98966.66
2023-04-02T03:29:08.501Z,98970.28
2023-04-02T03:32:17.058Z,98964.31
2023-04-02T03:35:27.559Z,98929.50
2023-04-02T03:38:32.933Z,98971.13
2023-04-02T03:41:45.057Z,98957.34
2023-04-02T03:44:49.704Z,98957.34
2023-04-02T03:47:56.232Z,98960.63
2023-04-02T03:51:06.406Z,98956.69
2023-04-02T03:54:13.903Z,98956.34
2023-04-02T03:57:25.652Z,98967.94
2023-04-02T04:00:35.439Z,98969.88
2023-04-02T04:03:41.892Z,98972.22
2023-04-02T04:06:49.400Z,98974.16
2023-04-02T04:09:52.264Z,98974.47
2023-04-02T04:12:57.578Z,98981.94
2023-04-02T04:16:03.484Z,98982.59
2023-04-02T04:19:10.994Z,98983.06
2023-04-02T04:22:19.156Z,98994.84
2023-04-02T04:25:29.780Z,99002.97
2023-04-02T04:28:39.082Z,99004.47
2023-04-02T04:31:47.573Z,99010.44
2023-04-02T04:34:56.704Z,99011.44
2023-04-02T04:38:05.302Z,99007.31
2023-04-02T04:41:13.427Z,98995.94
2023-04-02T04:44:20.609Z,99025.31
2023-04-02T04:47:31.167Z,99020.03
2023-04-02T04:50:37.848Z,99029.88
2023-04-02T04:53:47.511Z,99027.56
2023-04-02T04:56:54.798Z,99028.84
2023-04-02T05:00:07.207Z,99046.50
2023-04-02T05:03:17.692Z,99036.69
2023-04-02T05:06:31.977Z,99037.28
2023-04-02T05:09:40.477Z,99031.25
2023-04-02T05:12:49.495Z,99025.09
2023-04-02T05:16:02.237Z,99027.19
2023-04-02T05:19:09.178Z,99026.66
2023-04-02T05:22:24.357Z,99039.34
2023-04-02T05:25:29.881Z,99040.63
2023-04-02T05:28:38.688Z,99051.19
2023-04-02T05:31:45.003Z,99051.56
2023-04-02T05:34:52.891Z,99054.78
2023-04-02T05:37:54.965Z,99050.88
2023-04-02T05:41:04.043Z,99051.13
2023-04-02T05:44:10.621Z,99059.84
2023-04-02T05:47:14.846Z,99067.63
2023-04-02T05:50:25.242Z,99078.63
2023-04-02T05:53:32.172Z,99031.00
2023-04-02T05:56:41.342Z,99074.66
2023-04-02T05:59:47.438Z,99077.81
2023-04-02T06:02:56.592Z,99082.38
2023-04-02T06:06:04.325Z,99076.69
2023-04-02T06:09:11.587Z,99071.00
2023-04-02T06:12:27.930Z,99074.22
2023-04-02T06:15:31.109Z,99077.34
2023-04-02T06:18:35.788Z,99072.66
2023-04-02T06:21:44.023Z,99066.34
2023-04-02T06:24:50.575Z,99082.16
2023-04-02T06:27:56.818Z,99072.28
2023-04-02T06:31:03.203Z,99083.31
2023-04-02T06:34:07.779Z,99082.66
2023-04-02T06:37:21.357Z,99075.22
2023-04-02T06:40:35.665Z,99095.16
2023-04-02T06:43:44.741Z,99101.59
2023-04-02T06:46:51.105Z,99104.00
2023-04-02T06:50:00.793Z,99105.28
2023-04-02T06:53:06.478Z,99080.13
2023-04-02T06:56:13.292Z,99095.06
2023-04-02T06:59:17.016Z,99107.25
2023-04-02T07:02:29.167Z,99111.56
2023-04-02T07:05:31.646Z,99093.16
2023-04-02T07:08:34.253Z,99110.63
2023-04-02T07:11:36.447Z,99112.75
2023-04-02T07:14:39.691Z,99109.31
2023-04-02T07:17:41.585Z,99105.63
2023-04-02T07:20:43.490Z,99108.09
2023-04-02T07:23:46.401Z,99110.84
2023-04-02T07:26:48.361Z,99101.59
2023-04-02T07:29:51.627Z,99110.09
2023-04-02T07:32:54.264Z,99119.47
2023-04-02T07:35:57.437Z,99105.88
2023-04-02T07:39:00.182Z,99124.59
2023-04-02T07:42:02.409Z,99119.72
2023-04-02T07:45:06.853Z,99139.69
2023-04-02T07:48:10.972Z,99133.47
2023-04-02T07:51:18.634Z,99134.19
2023-04-02T07:54:21.360Z,99132.19
2023-04-02T07:57:23.295Z,99135.06
2023-04-02T08:00:28.497Z,99135.06
2023-04-02T08:03:30.466Z,99096.28
2023-04-02T08:06:33.116Z,99098.63
2023-04-02T08:09:34.900Z,99084.94
2023-04-02T08:12:36.951Z,99077.75
2023-04-02T08:15:40.732Z,99087.53
2023-04-02T08:18:42.700Z,99086.53
2023-04-02T08:21:45.664Z,99095.69
2023-04-02T08:24:47.529Z,99080.63
2023-04-02T08:27:50.646Z,99106.75
2023-04-02T08:30:53.915Z,99124.50
2023-04-02T08:33:57.065Z,99176.59
2023-04-02T08:36:59.178Z,99158.31
2023-04-02T08:40:01.973Z,99158.44
2023-04-02T08:43:31.114Z,99160.00
2023-04-02T08:46:43.816Z,99166.66
2023-04-02T08:49:53.873Z,99169.84
2023-04-02T08:52:57.044Z,99171.88
2023-04-02T08:56:06.155Z,99174.00
2023-04-02T08:59:18.460Z,99182.44
2023-04-02T09:02:32.107Z,99152.22
2023-04-02T09:05:39.870Z,99171.22
2023-04-02T09:08:44.210Z,99173.38
2023-04-02T09:11:52.698Z,99167.66
2023-04-02T09:15:06.242Z,99185.75
2023-04-02T09:18:15.636Z,99181.34
2023-04-02T09:21:34.692Z,99186.38
2023-04-02T09:24:37.884Z,99180.31
2023-04-02T09:27:39.747Z,99175.94
2023-04-02T09:30:57.291Z,99164.75
2023-04-02T09:34:01.383Z,99180.78
2023-04-02T09:37:08.443Z,99192.63
2023-04-02T09:40:19.223Z,99191.22
2023-04-02T09:43:22.717Z,99185.28
2023-04-02T09:46:26.028Z,99185.59
2023-04-02T09:49:32.630Z,99206.28
2023-04-02T09:52:34.517Z,99209.75
2023-04-02T09:55:37.266Z,99212.88
2023-04-02T09:58:39.622Z,99205.28
2023-04-02T10:01:43.892Z,99210.97
2023-04-02T10:04:49.669Z,99209.38
2023-04-02T10:07:55.570Z,99219.19
2023-04-02T10:11:00.759Z,99215.31
2023-04-02T10:14:06.229Z,99213.78
2023-04-02T10:17:14.667Z,99207.91
2023-04-02T10:20:23.035Z,99207.28
2023-04-02T10:23:29.636Z,99192.78
2023-04-02T10:26:55.626Z,99196.69
2023-04-02T10:30:16.033Z,99190.00
2023-04-02T10:33:22.225Z,99189.00
2023-04-02T10:36:39.298Z,99196.16
2023-04-02T10:39:44.335Z,99189.69
2023-04-02T10:42:53.214Z,99183.81
2023-04-02T10:45:59.437Z,99191.34
2023-04-02T10:49:11.838Z,99175.84
2023-04-02T10:52:21.280Z,99183.53
2023-04-02T10:55:28.295Z,99178.97
2023-04-02T10:58:34.499Z,99194.19
2023-04-02T11:01:37.857Z,99197.94
2023-04-02T11:04:45.469Z,99185.50
2023-04-02T11:08:00.840Z,99174.22
2023-04-02T11:11:10.764Z,99160.38
2023-04-02T11:14:17.611Z,99183.50
2023-04-02T11:17:20.216Z,99182.72
2023-04-02T11:20:56.289Z,99187.88
2023-04-02T11:24:01.211Z,99186.81
2023-04-02T11:27:14.955Z,99166.44
2023-04-02T11:30:23.147Z,99171.63
2023-04-02T11:33:43.146Z,99177.81
2023-04-02T11:37:06.678Z,99173.59
2023-04-02T11:40:38.516Z,99181.16
2023-04-02T11:43:50.860Z,99159.44
2023-04-02T11:47:17.788Z,99166.09
2023-04-02T11:50:30.836Z,99163.84
2023-04-02T11:53:34.922Z,99177.41
2023-04-02T11:56:46.650Z,99159.75
2023-04-02T11:59:55.120Z,99166.72
2023-04-02T12:03:16.282Z,99173.31
2023-04-02T12:06:27.149Z,99170.22
2023-04-02T12:09:32.326Z,99173.31
2023-04-02T12:12:38.394Z,99150.50
2023-04-02T12:15:46.571Z,99151.50
2023-04-02T12:18:54.069Z,99140.00
2023-04-02T12:21:56.634Z,99153.56
2023-04-02T12:25:01.161Z,99149.06
2023-04-02T12:28:14.607Z,99158.50
2023-04-02T12:31:21.901Z,99148.41
2023-04-02T12:34:26.604Z,99144.94
2023-04-02T12:37:29.920Z,99140.38
2023-04-02T12:40:32.425Z,99145.13
2023-04-02T12:43:35.860Z,99138.78
2023-04-02T12:46:40.042Z,99139.59
2023-04-02T12:49:44.643Z,99130.97
2023-04-02T12:52:50.136Z,99129.94
2023-04-02T12:55:53.669Z,99124.78
2023-04-02T12:58:57.280Z,99122.09
2023-04-02T13:02:02.740Z,99127.88
2023-04-02T13:05:04.530Z,99137.91
2023-04-02T13:08:16.966Z,99125.81
2023-04-02T13:11:19.545Z,99120.06
2023-04-02T13:14:23.459Z,99128.28
2023-04-02T13:17:42.496Z,99128.88
2023-04-02T13:20:56.488Z,99115.06
2023-04-02T13:23:59.611Z,99130.00
2023-04-02T13:27:03.452Z,99132.72
2023-04-02T13:30:10.390Z,99140.41
2023-04-02T13:33:15.450Z,99132.13
2023-04-02T13:36:17.351Z,99148.56
2023-04-02T13:39:20.832Z,99141.19
2023-04-02T13:42:22.879Z,99143.25
2023-04-02T13:45:27.970Z,99139.19
2023-04-02T13:48:31.625Z,99131.09
2023-04-02T13:51:37.528Z,99143.44
2023-04-02T13:54:44.045Z,99141.72
2023-04-02T13:57:47.431Z,99124.06
2023-04-02T14:00:51.183Z,99131.72
2023-04-02T14:03:56.912Z,99136.69
2023-04-02T14:07:21.830Z,99129.03
2023-04-02T14:10:36.965Z,99139.94
2023-04-02T14:14:19.086Z,99152.53
2023-04-02T14:17:31.093Z,99095.38
2023-04-02T14:20:45.835Z,99144.09
2023-04-02T14:24:04.454Z,99153.94
2023-04-02T14:27:18.638Z,99156.25
2023-04-02T14:30:28.773Z,99165.31
2023-04-02T14:33:39.012Z,99176.31
2023-04-02T14:36:51.451Z,99185.66
2023-04-02T14:40:04.402Z,99208.63
2023-04-02T14:43:11.699Z,99227.81
2023-04-02T14:46:14.915Z,99230.72
2023-04-02T14:49:25.034Z,99240.59
2023-04-02T14:52:35.356Z,99224.59
2023-04-02T14:55:42.856Z,99244.19
2023-04-02T14:58:51.266Z,99262.84
2023-04-02T15:01:59.429Z,99265.19
2023-04-02T15:05:05.878Z,99281.22
2023-04-02T15:08:18.338Z,99278.69
2023-04-02T15:11:26.595Z,99292.78
2023-04-02T15:14:35.893Z,99297.72
2023-04-02T15:17:38.837Z,99291.59
2023-04-02T15:20:53.091Z,99277.19
2023-04-02T15:24:06.301Z,99273.41
2023-04-02T15:27:25.362Z,99271.41
2023-04-02T15:30:35.710Z,99281.50
2023-04-02T15:33:44.407Z,99289.78
2023-04-02T15:37:01.929Z,99270.28
2023-04-02T15:40:21.057Z,99256.34
2023-04-02T15:43:29.697Z,99267.25
2023-04-02T15:46:43.029Z,99268.75
2023-04-02T15:49:55.321Z,99262.41
2023-04-02T15:53:08.242Z,99249.81
2023-04-02T15:56:25.210Z,99255.50
2023-04-02T15:59:49.150Z,99251.94
2023-04-02T16:03:24.092Z,99260.78
2023-04-02T16:06:28.603Z,99259.53
2023-04-02T16:09:44.637Z,99264.72
2023-04-02T16:12:53.912Z,99264.19
2023-04-02T16:16:04.724Z,99259.72
2023-04-02T16:19:16.641Z,99267.19
2023-04-02T16:22:26.639Z,99271.97
2023-04-02T16:25:36.706Z,99281.81
2023-04-02T16:28:49.673Z,99272.66
2023-04-02T16:32:02.193Z,99284.97
2023-04-02T16:38:44.149Z,99300.66
2023-04-02T16:41:59.993Z,99302.78
2023-04-02T16:45:19.582Z,99303.16
2023-04-02T16:48:33.858Z,99277.38
2023-04-02T16:51:44.856Z,99320.88
2023-04-02T16:54:59.373Z,99332.84
2023-04-02T16:58:18.517Z,99319.91
2023-04-02T17:01:33.106Z,99341.41
2023-04-02T17:04:57.246Z,99342.22
2023-04-02T17:08:17.004Z,99345.19
2023-04-02T17:11:25.160Z,99344.88
2023-04-02T17:14:35.158Z,99345.66
2023-04-02T17:17:42.256Z,99349.09
2023-04-02T17:20:46.677Z,99351.78
2023-04-02T17:23:56.295Z,99353.94
2023-04-02T17:27:04.400Z,99370.28
2023-04-02T17:30:17.061Z,99352.78
2023-04-02T17:33:22.758Z,99370.66
2023-04-02T17:36:33.787Z,99365.63
2023-04-02T17:39:47.726Z,99377.31
2023-04-02T17:42:58.917Z,99378.13
2023-04-02T17:46:12.141Z,99364.81
2023-04-02T17:49:28.505Z,99399.53
2023-04-02T17:52:39.489Z,99405.13
2023-04-02T17:55:54.247Z,99409.72
2023-04-02T17:59:30.516Z,99408.69
2023-04-02T18:02:46.790Z,99426.97
2023-04-02T18:05:57.594Z,99408.44
2023-04-02T18:09:19.845Z,99427.81
2023-04-02T18:12:33.511Z,99421.69
2023-04-02T18:15:46.205Z,99444.09
2023-04-02T18:19:00.278Z,99451.34
2023-04-02T18:22:14.072Z,99439.09
2023-04-02T18:25:35.729Z,99444.38
2023-04-02T18:28:54.025Z,99471.38
2023-04-02T18:32:05.355Z,99472.16
2023-04-02T18:35:21.960Z,99481.47
2023-04-02T18:38:34.024Z,99465.50
2023-04-02T18:41:50.793Z,99484.69
2023-04-02T18:45:05.059Z,99498.72
2023-04-02T18:48:26.924Z,99497.66
2023-04-02T18:51:36.277Z,99500.06
2023-04-02T18:54:47.334Z,99510.06
2023-04-02T18:57:54.714Z,99519.91
2023-04-02T19:00:59.694Z,99492.31
2023-04-02T19:04:07.104Z,99528.88
2023-04-02T19:07:15.037Z,99535.72
2023-04-02T19:10:30.772Z,99542.66
2023-04-02T19:13:34.844Z,99540.59
2023-04-02T19:17:01.048Z,99547.16
2023-04-02T19:20:17.964Z,99555.06
2023-04-02T19:23:39.291Z,99551.06
2023-04-02T19:26:51.406Z,99555.63
2023-04-02T19:30:04.419Z,99572.16
2023-04-02T19:33:20.062Z,99565.34
2023-04-02T19:36:41.636Z,99570.34
2023-04-02T19:40:05.543Z,99582.56
2023-04-02T19:43:12.518Z,99569.78
2023-04-02T19:46:16.411Z,99574.34
2023-04-02T19:49:29.709Z,99594.72
2023-04-02T19:52:34.836Z,99594.22
2023-04-02T19:55:38.239Z,99595.72
2023-04-02T19:58:42.995Z,99604.03
2023-04-02T20:01:47.194Z,99631.09
2023-04-02T20:04:53.794Z,99634.00
2023-04-02T20:07:58.035Z,99633.50
2023-04-02T20:11:01.547Z,99639.38
2023-04-02T20:14:07.194Z,99641.03
2023-04-02T20:17:09.927Z,99643.38
2023-04-02T20:20:16.333Z,99665.78
2023-04-02T20:23:20.694Z,99664.38
2023-04-02T20:26:24.026Z,99660.78
2023-04-02T20:29:30.977Z,99684.41
2023-04-02T20:32:37.967Z,99680.25
2023-04-02T20:35:41.914Z,99669.69
2023-04-02T20:38:45.937Z,99673.00
2023-04-02T20:41:48.660Z,99680.66
2023-04-02T20:44:51.946Z,99680.09
2023-04-02T20:47:53.916Z,99689.25
2023-04-02T20:54:35.105Z,99698.97
2023-04-02T20:57:37.230Z,99710.75
2023-04-02T21:00:42.226Z,99715.50
2023-04-02T21:03:44.339Z,99710.09
2023-04-02T21:06:47.217Z,99723.56
2023-04-02T21:09:49.148Z,99726.59
2023-04-02T21:12:51.178Z,99735.31
2023-04-02T21:15:54.771Z,99742.69
2023-04-02T21:18:59.463Z,99743.81
2023-04-02T21:22:01.477Z,99742.03
2023-04-02T21:25:03.393Z,99746.19
2023-04-02T21:28:06.489Z,99749.66
2023-04-02T21:31:12.063Z,99758.53
2023-04-02T21:34:15.756Z,99765.34
2023-04-02T21:37:17.672Z,99758.69
2023-04-02T21:40:19.989Z,99757.25
2023-04-02T21:43:22.002Z,99759.22
2023-04-02T21:46:27.177Z,99760.59
2023-04-02T21:49:30.032Z,99752.38
2023-04-02T21:52:32.507Z,99763.50
2023-04-02T21:55:34.325Z,99773.22
2023-04-02T21:58:37.032Z,99742.50
2023-04-02T22:01:41.988Z,99777.50
2023-04-02T22:04:43.991Z,99784.16
2023-04-02T22:07:45.848Z,99783.06
2023-04-02T22:10:47.682Z,99779.84
2023-04-02T22:13:50.877Z,99799.00
2023-04-02T22:16:54.307Z,99790.66
2023-04-02T22:19:57.020Z,99789.81
2023-04-02T22:22:58.850Z,99793.28
2023-04-02T22:26:01.171Z,99802.16
2023-04-02T22:29:03.483Z,99801.19
2023-04-02T22:32:07.340Z,99797.03
2023-04-02T22:35:09.806Z,99801.88
2023-04-02T22:38:11.733Z,99803.13
2023-04-02T22:41:16.368Z,99795.59
2023-04-02T22:44:18.281Z,99808.63
2023-04-02T22:47:22.251Z,99808.63
2023-04-02T22:50:24.869Z,99816.31
2023-04-02T22:53:26.731Z,99817.38
2023-04-02T22:56:32.897Z,99821.56
2023-04-02T22:59:34.730Z,99819.91
2023-04-02T23:02:38.903Z,99823.50
2023-04-02T23:05:42.534Z,99825.19
2023-04-02T23:08:44.953Z,99814.88
2023-04-02T23:11:46.813Z,99825.28
2023-04-02T23:14:48.812Z,99821.13
2023-04-02T23:17:52.053Z,99814.72
2023-04-02T23:20:54.997Z,99830.13
2023-04-02T23:23:57.017Z,99835.13
2023-04-02T23:26:59.777Z,99836.94
2023-04-02T23:30:01.621Z,99844.69
2023-04-02T23:33:04.925Z,99837.19
2023-04-02T23:36:09.578Z,99808.56
2023-04-02T23:39:13.001Z,99845.09
2023-04-02T23:42:16.061Z,99845.94
2023-04-02T23:45:17.962Z,99837.75
2023-04-02T23:48:22.103Z,99827.84
2023-04-02T23:51:24.868Z,99848.97
2023-04-02T23:54:28.149Z,99834.50
2023-04-02T23:57:30.066Z,99845.94
